createdAt,value
2019-06-08T00:01:34.452Z,2.07
2019-06-08T00:04:08.749Z,2.00
2019-06-08T00:06:38.572Z,2.20
2019-06-08T00:09:08.660Z,2.03
2019-06-08T00:11:40.154Z,2.40
2019-06-08T00:14:09.866Z,2.13
2019-06-08T00:16:40.727Z,1.80
2019-06-08T00:19:10.285Z,2.17
2019-06-08T00:21:40.051Z,2.00
2019-06-08T00:24:09.591Z,2.17
2019-06-08T00:26:39.580Z,2.03
2019-06-08T00:29:14.196Z,2.13
2019-06-08T00:31:46.096Z,1.80
2019-06-08T00:34:24.850Z,2.13
2019-06-08T00:36:54.915Z,2.07
2019-06-08T00:39:25.414Z,2.07
2019-06-08T00:41:56.952Z,2.13
2019-06-08T00:44:31.740Z,1.97
2019-06-08T00:47:03.372Z,1.77
2019-06-08T00:49:37.776Z,1.93
2019-06-08T00:52:10.226Z,2.33
2019-06-08T00:54:42.323Z,2.00
2019-06-08T00:57:15.074Z,1.87
2019-06-08T00:59:52.279Z,2.70
2019-06-08T01:02:24.626Z,2.47
2019-06-08T01:05:03.048Z,2.43
2019-06-08T01:07:39.374Z,2.63
2019-06-08T01:10:11.690Z,2.30
2019-06-08T01:12:44.824Z,2.80
2019-06-08T01:15:16.914Z,2.80
2019-06-08T01:18:02.258Z,2.53
2019-06-08T01:20:38.895Z,2.60
2019-06-08T01:23:09.060Z,2.50
2019-06-08T01:25:41.136Z,2.70
2019-06-08T01:28:11.841Z,2.80
2019-06-08T01:30:42.406Z,2.70
2019-06-08T01:33:13.921Z,2.70
2019-06-08T01:35:45.776Z,2.80
2019-06-08T01:38:18.114Z,2.40
2019-06-08T01:40:49.839Z,2.57
2019-06-08T01:43:21.652Z,2.80
2019-06-08T01:45:53.759Z,2.50
2019-06-08T01:48:26.296Z,2.40
2019-06-08T01:50:55.968Z,2.50
2019-06-08T01:53:26.835Z,2.63
2019-06-08T01:55:58.113Z,2.50
2019-06-08T01:58:27.602Z,2.93
2019-06-08T02:00:59.226Z,2.77
2019-06-08T02:03:32.711Z,2.83
2019-06-08T02:06:04.766Z,2.50
2019-06-08T02:08:39.189Z,3.33
2019-06-08T02:11:10.736Z,2.60
2019-06-08T02:13:42.248Z,2.30
2019-06-08T02:16:12.672Z,2.80
2019-06-08T02:18:50.796Z,2.60
2019-06-08T02:21:20.112Z,2.97
2019-06-08T02:23:51.001Z,3.00
2019-06-08T02:26:22.158Z,2.93
2019-06-08T02:28:55.009Z,2.83
2019-06-08T02:31:27.839Z,2.80
2019-06-08T02:34:01.247Z,2.60
2019-06-08T02:36:37.583Z,2.90
2019-06-08T02:39:10.004Z,2.60
2019-06-08T02:41:40.834Z,2.70
2019-06-08T02:44:12.456Z,2.90
2019-06-08T02:46:42.889Z,2.67
2019-06-08T02:49:22.491Z,2.70
2019-06-08T02:51:54.422Z,2.80
2019-06-08T02:54:27.965Z,2.70
2019-06-08T02:57:00.626Z,3.00
2019-06-08T02:59:32.917Z,2.53
2019-06-08T03:02:04.562Z,2.90
2019-06-08T03:04:39.397Z,2.30
2019-06-08T03:07:11.365Z,2.10
2019-06-08T03:09:42.301Z,2.37
2019-06-08T03:12:11.863Z,2.20
2019-06-08T03:14:42.863Z,2.10
2019-06-08T03:17:13.014Z,2.10
2019-06-08T03:19:42.613Z,2.23
2019-06-08T03:22:12.220Z,2.40
2019-06-08T03:24:44.048Z,1.90
2019-06-08T03:27:13.458Z,2.10
2019-06-08T03:29:43.977Z,2.13
2019-06-08T03:32:14.240Z,2.20
2019-06-08T03:34:55.109Z,2.27
2019-06-08T03:37:18.068Z,2.13
2019-06-08T03:39:48.196Z,2.20
2019-06-08T03:42:19.533Z,2.10
2019-06-08T03:44:49.437Z,1.80
2019-06-08T03:47:19.028Z,2.13
2019-06-08T03:49:56.603Z,2.20
2019-06-08T03:52:20.806Z,2.20
2019-06-08T03:54:51.164Z,2.00
2019-06-08T03:57:22.548Z,2.00
2019-06-08T03:59:53.554Z,2.30
2019-06-08T04:02:23.202Z,2.20
2019-06-08T04:04:53.350Z,2.40
2019-06-08T04:07:24.323Z,2.27
2019-06-08T04:09:54.186Z,2.10
2019-06-08T04:12:24.973Z,2.20
2019-06-08T04:14:55.087Z,2.30
2019-06-08T04:17:24.710Z,2.27
2019-06-08T04:20:09.325Z,2.60
2019-06-08T04:22:26.703Z,2.70
2019-06-08T04:24:57.252Z,2.40
2019-06-08T04:27:27.055Z,2.77
2019-06-08T04:29:56.830Z,2.63
2019-06-08T04:32:26.355Z,2.80
2019-06-08T04:34:58.976Z,2.70
2019-06-08T04:37:29.083Z,2.37
2019-06-08T04:39:59.717Z,2.50
2019-06-08T04:42:30.047Z,2.77
2019-06-08T04:45:00.427Z,2.97
2019-06-08T04:47:31.164Z,3.00
2019-06-08T04:50:20.779Z,2.60
2019-06-08T04:52:36.250Z,3.00
2019-06-08T04:55:06.987Z,2.87
2019-06-08T04:57:36.762Z,2.57
2019-06-08T05:00:12.992Z,2.60
2019-06-08T05:02:44.039Z,2.80
2019-06-08T05:05:13.555Z,2.43
2019-06-08T05:07:44.288Z,2.40
2019-06-08T05:10:15.071Z,2.60
2019-06-08T05:12:47.841Z,2.70
2019-06-08T05:15:26.251Z,2.37
2019-06-08T05:17:58.118Z,2.40
2019-06-08T05:20:38.205Z,2.37
2019-06-08T05:23:07.594Z,2.60
2019-06-08T05:25:43.139Z,2.90
2019-06-08T05:28:17.561Z,3.07
2019-06-08T05:30:49.630Z,2.93
2019-06-08T05:33:21.533Z,2.83
2019-06-08T05:35:56.524Z,2.80
2019-06-08T05:38:26.436Z,2.50
2019-06-08T05:40:57.541Z,2.40
2019-06-08T05:43:29.413Z,2.40
2019-06-08T05:46:01.210Z,2.80
2019-06-08T05:48:31.259Z,3.10
2019-06-08T05:51:04.273Z,2.50
2019-06-08T05:53:39.694Z,2.63
2019-06-08T05:56:11.923Z,2.20
2019-06-08T05:58:43.955Z,2.70
2019-06-08T06:01:16.840Z,2.80
2019-06-08T06:03:48.899Z,2.70
2019-06-08T06:06:23.580Z,3.03
2019-06-08T06:08:55.481Z,2.53
2019-06-08T06:11:26.728Z,2.97
2019-06-08T06:13:57.007Z,3.07
2019-06-08T06:16:27.504Z,3.23
2019-06-08T06:18:58.751Z,2.77
2019-06-08T06:21:29.605Z,3.37
2019-06-08T06:24:02.982Z,6.23
2019-06-08T06:26:38.175Z,5.67
2019-06-08T06:29:08.600Z,5.07
2019-06-08T06:31:39.129Z,6.73
2019-06-08T06:34:10.409Z,2.90
2019-06-08T06:36:41.701Z,3.20
2019-06-08T06:39:13.230Z,3.00
2019-06-08T06:41:44.062Z,3.67
2019-06-08T06:44:14.236Z,2.83
2019-06-08T06:46:44.180Z,3.17
2019-06-08T06:49:14.799Z,2.93
2019-06-08T06:51:44.798Z,3.17
2019-06-08T06:54:14.592Z,3.23
2019-06-08T06:56:45.298Z,3.37
2019-06-08T06:59:15.948Z,3.97
2019-06-08T07:01:47.466Z,3.40
2019-06-08T07:04:17.898Z,3.40
2019-06-08T07:06:48.127Z,3.97
2019-06-08T07:09:19.524Z,3.90
2019-06-08T07:11:50.958Z,3.63
2019-06-08T07:14:27.295Z,3.80
2019-06-08T07:16:56.717Z,4.20
2019-06-08T07:19:26.603Z,4.60
2019-06-08T07:21:58.593Z,4.67
2019-06-08T07:24:28.946Z,5.33
2019-06-08T07:27:02.831Z,5.17
2019-06-08T07:29:33.149Z,5.27
2019-06-08T07:32:05.466Z,6.10
2019-06-08T07:34:40.984Z,6.53
2019-06-08T07:37:08.935Z,9.50
2019-06-08T07:39:40.979Z,7.67
2019-06-08T07:42:12.317Z,7.23
2019-06-08T07:44:43.568Z,8.70
2019-06-08T07:47:14.401Z,7.07
2019-06-08T07:49:51.125Z,6.87
2019-06-08T07:52:22.145Z,7.03
2019-06-08T07:54:54.684Z,6.70
2019-06-08T07:57:26.165Z,6.63
2019-06-08T07:59:56.337Z,6.80
2019-06-08T08:02:28.553Z,6.87
2019-06-08T08:04:58.856Z,5.70
2019-06-08T08:07:29.874Z,5.70
2019-06-08T08:10:00.408Z,5.30
2019-06-08T08:12:31.263Z,12.63
2019-06-08T08:15:00.835Z,5.00
2019-06-08T08:17:34.318Z,4.50
2019-06-08T08:20:03.389Z,4.70
2019-06-08T08:22:34.171Z,5.23
2019-06-08T08:25:05.086Z,4.97
2019-06-08T08:27:37.390Z,4.40
2019-06-08T08:30:08.447Z,4.63
2019-06-08T08:32:38.587Z,3.57
2019-06-08T08:35:09.405Z,3.70
2019-06-08T08:37:40.015Z,4.80
2019-06-08T08:40:09.894Z,3.50
2019-06-08T08:42:48.269Z,3.60
2019-06-08T08:45:20.088Z,3.77
2019-06-08T08:48:14.441Z,3.70
2019-06-08T08:50:29.207Z,3.90
2019-06-08T08:53:08.351Z,3.90
2019-06-08T08:55:40.140Z,3.97
2019-06-08T08:58:12.835Z,4.97
2019-06-08T09:00:44.363Z,4.37
2019-06-08T09:03:33.727Z,3.70
2019-06-08T09:06:04.687Z,4.23
2019-06-08T09:08:41.261Z,4.13
2019-06-08T09:11:12.976Z,4.77
2019-06-08T09:13:48.906Z,4.33
2019-06-08T09:16:31.054Z,4.80
2019-06-08T09:19:04.461Z,4.47
2019-06-08T09:21:38.506Z,4.20
2019-06-08T09:24:10.762Z,3.80
2019-06-08T09:27:03.996Z,3.60
2019-06-08T09:30:00.709Z,4.00
2019-06-08T09:32:34.182Z,4.00
2019-06-08T09:35:05.287Z,4.40
2019-06-08T09:37:37.572Z,4.17
2019-06-08T09:40:10.460Z,4.47
2019-06-08T09:42:44.264Z,4.73
2019-06-08T09:45:32.556Z,4.80
2019-06-08T09:48:10.515Z,4.10
2019-06-08T09:50:45.312Z,4.63
2019-06-08T09:53:28.482Z,4.40
2019-06-08T09:55:53.293Z,4.80
2019-06-08T09:58:31.651Z,4.13
2019-06-08T10:01:13.388Z,4.83
2019-06-08T10:03:48.246Z,4.93
2019-06-08T10:06:18.402Z,4.80
2019-06-08T10:08:50.317Z,4.80
2019-06-08T10:11:21.520Z,4.37
2019-06-08T10:13:54.502Z,5.07
2019-06-08T10:16:38.149Z,4.17
2019-06-08T10:19:12.643Z,3.80
2019-06-08T10:21:45.135Z,4.00
2019-06-08T10:24:17.086Z,3.23
2019-06-08T10:26:49.921Z,3.20
2019-06-08T10:29:26.276Z,3.30
2019-06-08T10:32:03.783Z,3.47
2019-06-08T10:34:38.633Z,3.80
2019-06-08T10:37:12.985Z,3.73
2019-06-08T10:39:49.365Z,3.40
2019-06-08T10:42:25.412Z,3.53
2019-06-08T10:44:59.334Z,3.10
2019-06-08T10:47:29.757Z,4.00
2019-06-08T10:50:09.146Z,3.20
2019-06-08T10:52:38.959Z,2.30
2019-06-08T10:55:10.352Z,2.67
2019-06-08T10:57:43.032Z,2.57
2019-06-08T11:00:22.658Z,2.67
2019-06-08T11:02:50.008Z,2.80
2019-06-08T11:05:21.868Z,3.33
2019-06-08T11:07:53.213Z,2.50
2019-06-08T11:10:25.483Z,1.57
2019-06-08T11:13:04.411Z,1.90
2019-06-08T11:18:24.265Z,1.60
2019-06-08T11:21:06.334Z,1.80
2019-06-08T11:23:41.599Z,1.77
2019-06-08T11:26:20.960Z,1.77
2019-06-08T11:28:53.521Z,1.80
2019-06-08T11:31:29.794Z,1.43
2019-06-08T11:34:02.659Z,1.50
2019-06-08T11:36:36.093Z,1.43
2019-06-08T11:39:11.317Z,1.40
2019-06-08T11:41:42.390Z,1.13
2019-06-08T11:44:14.824Z,1.50
2019-06-08T11:46:51.130Z,1.37
2019-06-08T11:49:23.526Z,1.50
2019-06-08T11:51:58.306Z,1.80
2019-06-08T11:54:49.530Z,1.60
2019-06-08T11:57:28.330Z,2.20
2019-06-08T12:00:10.763Z,1.93
2019-06-08T12:02:48.602Z,1.83
2019-06-08T12:05:18.452Z,1.90
2019-06-08T12:07:51.263Z,2.00
2019-06-08T12:10:21.976Z,2.30
2019-06-08T12:12:52.037Z,3.37
2019-06-08T12:15:33.363Z,2.40
2019-06-08T12:18:08.336Z,2.00
2019-06-08T12:20:42.398Z,2.00
2019-06-08T12:23:15.914Z,2.00
2019-06-08T12:25:50.087Z,2.03
2019-06-08T12:28:27.929Z,2.50
2019-06-08T12:31:00.993Z,2.10
2019-06-08T12:33:39.196Z,2.40
2019-06-08T12:36:20.985Z,2.10
2019-06-08T12:38:59.086Z,2.70
2019-06-08T12:41:33.997Z,2.63
2019-06-08T12:44:14.677Z,2.93
2019-06-08T12:46:44.029Z,2.80
2019-06-08T12:49:25.326Z,2.00
2019-06-08T12:51:59.877Z,2.40
2019-06-08T12:54:34.841Z,2.23
2019-06-08T12:57:13.419Z,2.13
2019-06-08T12:59:45.524Z,2.30
2019-06-08T13:02:22.037Z,2.40
2019-06-08T13:05:04.362Z,2.30
2019-06-08T13:07:38.535Z,2.40
2019-06-08T13:10:13.338Z,2.67
2019-06-08T13:12:43.528Z,2.30
2019-06-08T13:15:21.723Z,2.30
2019-06-08T13:17:55.056Z,2.17
2019-06-08T13:20:29.516Z,2.20
2019-06-08T13:23:04.470Z,2.20
2019-06-08T13:25:40.987Z,2.23
2019-06-08T13:28:15.413Z,2.30
2019-06-08T13:30:44.468Z,2.40
2019-06-08T13:33:16.753Z,2.60
2019-06-08T13:35:51.075Z,2.20
2019-06-08T13:38:23.156Z,2.70
2019-06-08T13:40:54.326Z,11.40
2019-06-08T13:43:28.278Z,2.23
2019-06-08T13:45:58.481Z,2.57
2019-06-08T13:48:28.478Z,2.20
2019-06-08T13:51:01.898Z,2.10
2019-06-08T13:53:38.159Z,2.20
2019-06-08T13:56:10.607Z,2.40
2019-06-08T13:58:41.803Z,1.80
2019-06-08T14:01:15.459Z,2.20
2019-06-08T14:03:51.720Z,2.10
2019-06-08T14:06:37.000Z,1.70
2019-06-08T14:09:11.689Z,1.67
2019-06-08T14:11:42.967Z,2.10
2019-06-08T14:14:14.930Z,1.93
2019-06-08T14:16:50.261Z,1.90
2019-06-08T14:19:21.716Z,2.03
2019-06-08T14:21:59.812Z,1.80
2019-06-08T14:24:39.482Z,1.70
2019-06-08T14:27:10.691Z,2.00
2019-06-08T14:29:44.047Z,1.50
2019-06-08T14:32:14.857Z,1.50
2019-06-08T14:34:50.314Z,1.60
2019-06-08T14:37:24.830Z,1.40
2019-06-08T14:39:58.876Z,1.23
2019-06-08T14:42:31.814Z,5.90
2019-06-08T14:45:02.767Z,1.43
2019-06-08T14:47:39.783Z,1.60
2019-06-08T14:50:13.342Z,1.40
2019-06-08T14:52:47.930Z,1.40
2019-06-08T14:55:21.751Z,1.57
2019-06-08T14:57:52.342Z,2.00
2019-06-08T15:00:25.662Z,2.23
2019-06-08T15:03:03.594Z,2.03
2019-06-08T15:05:37.687Z,1.70
2019-06-08T15:08:31.159Z,1.50
2019-06-08T15:11:08.062Z,1.50
2019-06-08T15:13:40.450Z,1.70
2019-06-08T15:16:10.868Z,1.60
2019-06-08T15:18:42.579Z,1.40
2019-06-08T15:21:20.453Z,1.80
2019-06-08T15:23:47.789Z,3.00
2019-06-08T15:26:28.282Z,2.20
2019-06-08T15:28:58.590Z,2.30
2019-06-08T15:31:32.763Z,2.30
2019-06-08T15:34:10.489Z,2.10
2019-06-08T15:36:40.536Z,2.17
2019-06-08T15:39:17.696Z,2.17
2019-06-08T15:41:48.812Z,2.30
2019-06-08T15:44:22.815Z,2.60
2019-06-08T15:46:54.618Z,1.73
2019-06-08T15:49:30.660Z,1.90
2019-06-08T15:52:02.817Z,2.17
2019-06-08T15:54:36.233Z,1.80
2019-06-08T15:57:07.266Z,2.03
2019-06-08T15:59:41.842Z,1.97
2019-06-08T16:02:11.609Z,1.90
2019-06-08T16:05:07.948Z,1.93
2019-06-08T16:07:43.559Z,2.27
2019-06-08T16:10:14.358Z,1.90
2019-06-08T16:12:45.505Z,2.30
2019-06-08T16:15:19.148Z,1.97
2019-06-08T16:17:50.055Z,2.20
2019-06-08T16:20:20.388Z,2.20
2019-06-08T16:22:51.479Z,1.90
2019-06-08T16:25:23.176Z,6.00
2019-06-08T16:27:53.935Z,1.60
2019-06-08T16:30:24.145Z,1.70
2019-06-08T16:32:54.883Z,1.63
2019-06-08T16:35:28.120Z,1.90
2019-06-08T16:37:58.701Z,1.70
2019-06-08T16:40:32.006Z,2.00
2019-06-08T16:43:03.969Z,1.87
2019-06-08T16:45:35.218Z,1.80
2019-06-08T16:48:05.276Z,1.50
2019-06-08T16:50:38.527Z,1.90
2019-06-08T16:53:10.495Z,1.80
2019-06-08T16:55:45.110Z,1.90
2019-06-08T16:58:16.782Z,3.17
2019-06-08T17:00:47.660Z,1.93
2019-06-08T17:03:18.817Z,1.80
2019-06-08T17:05:51.135Z,2.17
2019-06-08T17:08:23.806Z,2.00
2019-06-08T17:10:55.167Z,2.20
2019-06-08T17:13:30.056Z,1.90
2019-06-08T17:16:11.928Z,1.80
2019-06-08T17:18:49.500Z,2.10
2019-06-08T17:21:27.852Z,1.90
2019-06-08T17:23:58.728Z,2.17
2019-06-08T17:26:30.490Z,2.40
2019-06-08T17:29:06.671Z,1.97
2019-06-08T17:31:37.222Z,2.33
2019-06-08T17:34:22.068Z,2.20
2019-06-08T17:36:54.312Z,2.93
2019-06-08T17:39:49.737Z,3.13
2019-06-08T17:42:24.351Z,2.73
2019-06-08T17:45:01.205Z,3.70
2019-06-08T17:47:36.325Z,2.93
2019-06-08T17:50:27.473Z,2.80
2019-06-08T17:52:59.852Z,3.10
2019-06-08T17:55:29.697Z,3.10
2019-06-08T17:57:59.774Z,2.90
2019-06-08T18:00:30.612Z,2.70
2019-06-08T18:03:01.717Z,2.53
2019-06-08T18:05:31.856Z,2.47
2019-06-08T18:08:10.146Z,4.17
2019-06-08T18:10:42.902Z,2.57
2019-06-08T18:13:19.183Z,2.60
2019-06-08T18:15:59.192Z,1.97
2019-06-08T18:18:29.539Z,2.30
2019-06-08T18:21:08.106Z,2.10
2019-06-08T18:23:49.156Z,2.10
2019-06-08T18:26:22.454Z,2.10
2019-06-08T18:28:55.393Z,2.20
2019-06-08T18:31:27.621Z,2.00
2019-06-08T18:34:08.925Z,2.30
2019-06-08T18:36:45.079Z,2.27
2019-06-08T18:39:18.340Z,1.93
2019-06-08T18:42:01.907Z,2.07
2019-06-08T18:44:34.968Z,1.90
2019-06-08T18:47:21.067Z,1.90
2019-06-08T18:50:02.464Z,1.70
2019-06-08T18:52:49.696Z,2.17
2019-06-08T18:55:23.989Z,2.00
2019-06-08T18:57:57.274Z,2.80
2019-06-08T19:00:43.234Z,2.40
2019-06-08T19:03:13.868Z,2.43
2019-06-08T19:05:47.167Z,2.10
2019-06-08T19:08:18.884Z,2.40
2019-06-08T19:10:50.494Z,3.13
2019-06-08T19:13:21.601Z,2.90
2019-06-08T19:16:02.102Z,1.90
2019-06-08T19:18:38.373Z,1.97
2019-06-08T19:21:34.542Z,2.40
2019-06-08T19:24:18.049Z,2.40
2019-06-08T19:29:47.527Z,2.80
2019-06-08T19:32:20.306Z,2.53
2019-06-08T19:34:54.002Z,2.60
2019-06-08T19:37:33.218Z,1.97
2019-06-08T19:40:07.467Z,2.00
2019-06-08T19:42:51.114Z,2.23
2019-06-08T19:45:18.577Z,2.10
2019-06-08T19:47:53.635Z,2.20
2019-06-08T19:50:24.760Z,2.40
2019-06-08T19:52:57.986Z,2.37
2019-06-08T19:55:28.881Z,2.23
2019-06-08T19:58:02.476Z,2.50
2019-06-08T20:00:34.739Z,2.43
2019-06-08T20:03:07.692Z,2.47
2019-06-08T20:05:45.287Z,2.47
2019-06-08T20:08:19.940Z,2.30
2019-06-08T20:10:57.470Z,2.53
2019-06-08T20:13:28.879Z,2.30
2019-06-08T20:16:02.269Z,2.20
2019-06-08T20:18:53.043Z,2.23
2019-06-08T20:21:23.795Z,2.70
2019-06-08T20:23:58.339Z,6.63
2019-06-08T20:26:44.230Z,3.63
2019-06-08T20:29:19.832Z,2.87
2019-06-08T20:31:51.556Z,2.60
2019-06-08T20:34:27.027Z,2.43
2019-06-08T20:37:02.076Z,2.47
2019-06-08T20:39:38.461Z,2.73
2019-06-08T20:42:13.160Z,2.30
2019-06-08T20:44:49.068Z,2.20
2019-06-08T20:47:20.742Z,2.30
2019-06-08T20:49:58.294Z,2.53
2019-06-08T20:52:29.347Z,2.10
2019-06-08T20:55:01.883Z,2.37
2019-06-08T20:57:34.967Z,2.20
2019-06-08T21:00:11.631Z,3.67
2019-06-08T21:02:41.739Z,2.73
2019-06-08T21:05:18.260Z,2.87
2019-06-08T21:07:54.134Z,3.20
2019-06-08T21:10:28.173Z,3.20
2019-06-08T21:13:03.961Z,2.40
2019-06-08T21:15:38.248Z,2.80
2019-06-08T21:18:14.127Z,2.70
2019-06-08T21:20:47.610Z,2.57
2019-06-08T21:23:20.904Z,2.67
2019-06-08T21:25:53.667Z,2.80
2019-06-08T21:28:24.163Z,2.33
2019-06-08T21:30:58.230Z,2.70
2019-06-08T21:33:32.404Z,2.20
2019-06-08T21:36:11.003Z,2.57
2019-06-08T21:38:47.510Z,2.57
2019-06-08T21:41:18.823Z,2.13
2019-06-08T21:43:54.207Z,3.37
2019-06-08T21:46:23.321Z,2.33
2019-06-08T21:48:58.428Z,2.33
2019-06-08T21:51:31.141Z,2.20
2019-06-08T21:54:02.212Z,2.70
2019-06-08T21:56:32.923Z,2.40
2019-06-08T21:59:04.659Z,2.77
2019-06-08T22:01:37.422Z,2.33
2019-06-08T22:04:10.208Z,2.43
2019-06-08T22:06:43.271Z,1.90
2019-06-08T22:09:14.990Z,2.07
2019-06-08T22:12:00.773Z,2.00
2019-06-08T22:14:52.803Z,2.20
2019-06-08T22:17:27.800Z,2.73
2019-06-08T22:20:00.852Z,2.17
2019-06-08T22:22:31.422Z,2.20
2019-06-08T22:25:08.128Z,2.40
2019-06-08T22:27:40.805Z,2.50
2019-06-08T22:30:22.882Z,2.70
2019-06-08T22:32:43.582Z,2.17
2019-06-08T22:35:16.001Z,1.80
2019-06-08T22:37:53.272Z,2.10
2019-06-08T22:40:23.417Z,1.77
2019-06-08T22:42:54.605Z,2.50
2019-06-08T22:45:34.643Z,2.00
2019-06-08T22:48:13.442Z,1.90
2019-06-08T22:50:47.674Z,2.33
2019-06-08T22:53:21.344Z,2.00
2019-06-08T22:55:59.640Z,2.27
2019-06-08T22:58:40.600Z,1.70
2019-06-08T23:01:13.724Z,2.00
2019-06-08T23:03:43.837Z,1.83
2019-06-08T23:06:27.950Z,2.43
2019-06-08T23:09:00.942Z,2.10
2019-06-08T23:11:31.123Z,2.30
2019-06-08T23:14:04.088Z,2.33
2019-06-08T23:16:34.751Z,1.80
2019-06-08T23:19:07.839Z,1.93
2019-06-08T23:21:38.369Z,2.10
2019-06-08T23:24:13.226Z,2.00
2019-06-08T23:26:48.002Z,2.07
2019-06-08T23:29:18.197Z,1.90
2019-06-08T23:31:50.487Z,2.50
2019-06-08T23:37:24.511Z,2.57
2019-06-08T23:39:57.939Z,2.63
2019-06-08T23:42:31.810Z,2.90
2019-06-08T23:45:03.784Z,2.80
2019-06-08T23:47:34.933Z,2.50
2019-06-08T23:50:09.879Z,2.33
2019-06-08T23:52:47.545Z,1.90
2019-06-08T23:55:18.174Z,2.57
2019-06-08T23:57:51.559Z,2.17
